Knox, IN

8:45 AM CDT on August 16, 2017 (GMT -0500)
Starke County

Weather History for KOXI - March, 2012

Change the Weather History Date:

Monday, March 26, 2012

  Actual Average (KRCR) Record (KRCR)
Temperature  
Mean Temperature 44 °F -  
Max Temperature 52 °F 47 °F 64 °F (2017)
Min Temperature 37 °F 28 °F 19 °F (2014)
Degree Days  
Heating Degree Days 20    
Moisture  
Dew Point 31 °F    
Average Humidity 62    
Maximum Humidity 91    
Minimum Humidity 34    
Precipitation  
Precipitation 0.00 in - - ()
Sea Level Pressure  
Sea Level Pressure 30.27 in    
Wind  
Wind Speed 11 mph (NE)    
Max Wind Speed 15 mph    
Max Gust Speed 20 mph    
Visibility 10 miles    
Events      
Averages and records for this station are not official NWS values.
T = Trace of Precipitation, MM = Missing Value Source: NWS Daily Summary

Daily Weather History Graph

Daily Weather History Graph

Search for Another Location

Airport or City:

Trip Planner

Search our weather history database for the weather conditions in past years. The results will help you decide how hot, cold, wet, or windy it might be!

Date:

Astronomy

Mar. 26, 2012 Rise Set
Actual Time 6:39 AM CDT 7:05 PM CDT
Civil Twilight 6:11 AM CDT 7:33 PM CDT
Nautical Twilight 5:38 AM CDT 8:06 PM CDT
Astronomical Twilight 5:05 AM CDT 8:39 PM CDT
Moon 8:25 AM CDT (3/26) 11:19 PM CDT (3/26)
Length of Visible Light 13h 22m
Length of Day
12h 26m
Waxing Crescent, 15% of the Moon is Illuminated
Mar 26
Waxing Crescent
Mar 30
First Quarter
Apr 6
Full
Apr 13
Last Quarter
Apr 21
New

Hourly Weather History & Observations

Time (CDT) Temp. Windchill Dew Point Humidity Pressure Visibility Wind Dir Wind Speed Gust Speed Precip Events Conditions
12:15 AM 45.5 °F 39.2 °F 42.4 °F 89% 30.11 in 10.0 mi North 13.8 mph - N/A   Clear
12:35 AM 45.1 °F 40.3 °F 42.4 °F 90% 30.11 in 10.0 mi North 9.2 mph - N/A   Clear
12:55 AM 44.4 °F 39.0 °F 42.1 °F 91% 30.12 in 10.0 mi North 10.4 mph - N/A   Clear
1:15 AM 44.2 °F 38.8 °F 41.9 °F 91% 30.13 in 10.0 mi North 10.4 mph - N/A   Clear
1:35 AM 43.9 °F 39.9 °F 41.5 °F 91% 30.13 in 10.0 mi North 6.9 mph - N/A   Clear
1:55 AM 43.7 °F 39.1 °F 41.2 °F 91% 30.14 in 10.0 mi North 8.1 mph - N/A   Clear
2:15 AM 43.7 °F 38.1 °F 40.8 °F 90% 30.14 in 10.0 mi North 10.4 mph - N/A   Clear
2:35 AM 43.7 °F 37.7 °F 40.5 °F 88% 30.15 in 10.0 mi North 11.5 mph - N/A   Clear
2:55 AM 43.5 °F 37.1 °F 39.9 °F 87% 30.16 in 10.0 mi North 12.7 mph - N/A   Clear
3:15 AM 43.5 °F 38.3 °F 39.6 °F 86% 30.17 in 10.0 mi North 9.2 mph - N/A   Clear
3:35 AM 43.0 °F 36.8 °F 39.4 °F 87% 30.18 in 10.0 mi North 11.5 mph - N/A   Clear
3:55 AM 43.0 °F 36.8 °F 39.0 °F 86% 30.18 in 10.0 mi North 11.5 mph - N/A   Scattered Clouds
4:15 AM 43.0 °F 36.4 °F 38.1 °F 83% 30.19 in 10.0 mi North 12.7 mph - N/A   Mostly Cloudy
4:35 AM 42.4 °F 35.3 °F 36.7 °F 80% 30.19 in 10.0 mi North 13.8 mph 18.4 mph N/A   Mostly Cloudy
4:55 AM 41.4 °F 34.7 °F 35.8 °F 81% 30.20 in 10.0 mi North 11.5 mph - N/A   Scattered Clouds
5:15 AM 40.6 °F 33.0 °F 35.6 °F 82% 30.21 in 10.0 mi North 13.8 mph - N/A   Clear
5:35 AM 40.3 °F 33.4 °F 35.2 °F 82% 30.22 in 10.0 mi North 11.5 mph 18.4 mph N/A   Scattered Clouds
6:15 AM 39.0 °F 31.4 °F 34.0 °F 82% 30.25 in 10.0 mi North 12.7 mph 18.4 mph N/A   Scattered Clouds
6:35 AM 38.3 °F 30.1 °F 32.5 °F 80% 30.26 in 10.0 mi North 13.8 mph - N/A   Scattered Clouds
6:55 AM 38.5 °F 31.6 °F 32.0 °F 78% 30.27 in 10.0 mi NNE 10.4 mph - N/A   Overcast
7:15 AM 38.3 °F 31.4 °F 31.8 °F 77% 30.28 in 10.0 mi NNE 10.4 mph - N/A   Overcast
7:35 AM 38.1 °F 31.2 °F 31.8 °F 78% 30.30 in 10.0 mi North 10.4 mph - N/A   Overcast
7:55 AM 37.9 °F 29.2 °F 31.1 °F 76% 30.31 in 10.0 mi NNE 15.0 mph - N/A   Overcast
8:15 AM 37.8 °F 29.8 °F 29.7 °F 73% 30.31 in 10.0 mi NE 12.7 mph - N/A   Overcast
8:35 AM 37.4 °F 30.3 °F 28.8 °F 71% 30.31 in 10.0 mi NE 10.4 mph - N/A   Overcast
8:55 AM 37.0 °F 28.9 °F 28.6 °F 71% 30.32 in 10.0 mi NE 12.7 mph 17.3 mph N/A   Overcast
9:15 AM 37.4 °F 30.8 °F 29.3 °F 73% 30.32 in 10.0 mi NE 9.2 mph - N/A   Overcast
9:35 AM 37.6 °F 30.5 °F 29.3 °F 72% 30.33 in 10.0 mi NNE 10.4 mph 16.1 mph N/A   Overcast
9:55 AM 37.6 °F 31.0 °F 29.3 °F 72% 30.34 in 10.0 mi NE 9.2 mph - N/A   Overcast
10:15 AM 38.7 °F 31.8 °F 30.2 °F 72% 30.35 in 10.0 mi NNE 10.4 mph - N/A   Overcast
10:35 AM 40.1 °F 34.1 °F 29.1 °F 65% 30.34 in 10.0 mi NE 9.2 mph - N/A   Overcast
10:55 AM 41.4 °F 34.3 °F 29.7 °F 63% 30.35 in 10.0 mi NE 12.7 mph - N/A   Overcast
11:15 AM 43.3 °F 37.7 °F 29.7 °F 59% 30.35 in 10.0 mi ENE 10.4 mph - N/A   Mostly Cloudy
11:35 AM 44.2 °F 39.7 °F 26.8 °F 50% 30.35 in 10.0 mi ENE 8.1 mph 18.4 mph N/A   Scattered Clouds
11:55 AM 45.5 °F 39.2 °F 25.5 °F 46% 30.35 in 10.0 mi East 13.8 mph 17.3 mph N/A   Clear
12:15 PM 46.4 °F 41.9 °F 25.0 °F 43% 30.35 in 10.0 mi ENE 9.2 mph - N/A   Clear
12:35 PM 47.5 °F - 25.9 °F 43% 30.34 in 10.0 mi East 10.4 mph 19.6 mph N/A   Clear
1:15 PM 49.3 °F - 27.5 °F 43% 30.33 in 10.0 mi ENE 10.4 mph 17.3 mph N/A   Clear
1:35 PM 50.0 °F - 26.2 °F 40% 30.33 in 10.0 mi ENE 10.4 mph 17.3 mph N/A   Clear
2:15 PM 50.5 °F - 26.6 °F 39% 30.31 in 10.0 mi ENE 8.1 mph - N/A   Clear
2:35 PM 51.3 °F - 27.9 °F 40% 30.31 in 10.0 mi East 11.5 mph 19.6 mph N/A   Clear
3:15 PM 51.6 °F - 26.2 °F 37% 30.30 in 10.0 mi ENE 11.5 mph 17.3 mph N/A   Clear
3:35 PM 52.0 °F - 25.5 °F 36% 30.30 in 10.0 mi ENE 12.7 mph 18.4 mph N/A   Clear
3:55 PM 52.2 °F - 26.8 °F 37% 30.29 in 10.0 mi NE 10.4 mph - N/A   Clear
4:15 PM 52.3 °F - 25.9 °F 36% 30.30 in 10.0 mi ENE 6.9 mph 10.4 mph N/A   Clear
4:35 PM 52.3 °F - 25.3 °F 35% 30.29 in 10.0 mi ENE 13.8 mph - N/A   Clear
4:55 PM 52.0 °F - 24.6 °F 35% 30.29 in 10.0 mi ENE 8.1 mph - N/A   Clear
5:15 PM 51.8 °F - 23.9 °F 34% 30.29 in 10.0 mi East 10.4 mph - N/A   Clear
5:35 PM 51.8 °F - 24.8 °F 35% 30.28 in 10.0 mi East 10.4 mph - N/A   Clear
5:55 PM 51.3 °F - 23.5 °F 34% 30.28 in 10.0 mi East 13.8 mph 17.3 mph N/A   Clear
6:15 PM 50.7 °F - 23.4 °F 34% 30.28 in 10.0 mi ENE 10.4 mph 16.1 mph N/A   Clear
6:35 PM 49.8 °F - 23.0 °F 35% 30.28 in 10.0 mi East 10.4 mph - N/A   Clear
6:55 PM 48.6 °F - 23.4 °F 37% 30.28 in 10.0 mi ENE 11.5 mph - N/A   Clear
7:15 PM 47.1 °F - 24.4 °F 41% 30.28 in 10.0 mi ENE 10.4 mph 16.1 mph N/A   Clear
7:35 PM 46.0 °F 41.4 °F 25.5 °F 45% 30.28 in 10.0 mi ENE 9.2 mph - N/A   Clear
7:55 PM 45.3 °F 41.6 °F 25.9 °F 47% 30.28 in 10.0 mi East 6.9 mph - N/A   Clear
8:15 PM 44.4 °F 41.2 °F 26.4 °F 49% 30.29 in 10.0 mi ENE 5.8 mph - N/A   Clear
8:35 PM 43.2 °F 39.7 °F 27.0 °F 53% 30.29 in 10.0 mi East 5.8 mph - N/A   Clear
8:55 PM 43.0 °F 38.2 °F 27.1 °F 54% 30.30 in 10.0 mi East 8.1 mph - N/A   Clear
9:15 PM 42.8 °F 38.0 °F 27.0 °F 54% 30.30 in 10.0 mi East 8.1 mph - N/A   Clear
9:55 PM 41.5 °F 38.6 °F 27.1 °F 57% 30.32 in 10.0 mi East 4.6 mph - N/A   Clear
10:15 PM 40.5 °F 36.5 °F 27.3 °F 59% 30.32 in 10.0 mi East 5.8 mph - N/A   Clear
10:35 PM 39.9 °F 35.8 °F 27.7 °F 62% 30.32 in 10.0 mi ESE 5.8 mph - N/A   Clear
10:55 PM 39.4 °F 35.2 °F 28.0 °F 64% 30.32 in 10.0 mi East 5.8 mph - N/A   Clear
11:15 PM 39.6 °F 34.7 °F 28.4 °F 64% 30.31 in 10.0 mi ESE 6.9 mph - N/A   Clear
11:35 PM 40.1 °F 34.1 °F 28.2 °F 63% 30.30 in 10.0 mi ESE 9.2 mph - N/A   Clear
11:55 PM 40.5 °F 35.1 °F 27.7 °F 60% 30.29 in 10.0 mi ESE 8.1 mph - N/A   Clear